createdAt,value
2022-08-22T00:00:17.280Z,14
2022-08-22T00:03:01.581Z,19
2022-08-22T00:03:08.440Z,20
2022-08-22T00:03:10.469Z,18
2022-08-22T00:03:10.808Z,19
2022-08-22T00:05:17.355Z,15
2022-08-22T00:10:24.969Z,15
2022-08-22T00:15:41.846Z,16
2022-08-22T00:20:17.493Z,15
2022-08-22T00:25:24.656Z,16
2022-08-22T00:30:17.239Z,15
2022-08-22T00:35:17.242Z,15
2022-08-22T00:40:17.324Z,15
2022-08-22T00:45:18.131Z,15
2022-08-22T00:50:17.477Z,15
2022-08-22T00:55:17.264Z,16
2022-08-22T01:00:17.388Z,16
2022-08-22T01:05:17.415Z,16
2022-08-22T01:10:17.229Z,15
2022-08-22T01:15:17.443Z,16
2022-08-22T01:20:17.563Z,15
2022-08-22T01:25:17.450Z,15
2022-08-22T01:30:17.609Z,15
2022-08-22T01:35:17.517Z,16
2022-08-22T01:40:17.488Z,15
2022-08-22T01:45:17.563Z,16
2022-08-22T01:50:17.325Z,16
2022-08-22T01:55:17.509Z,16
2022-08-22T02:00:17.635Z,17
2022-08-22T02:05:17.466Z,16
2022-08-22T02:10:17.380Z,16
2022-08-22T02:15:17.923Z,16
2022-08-22T02:20:17.442Z,16
2022-08-22T02:25:17.488Z,17
2022-08-22T02:30:17.507Z,16
2022-08-22T02:35:17.711Z,17
2022-08-22T02:40:17.907Z,19
2022-08-22T02:45:17.567Z,19
2022-08-22T02:50:17.650Z,20
2022-08-22T02:55:17.540Z,17
2022-08-22T03:00:30.818Z,19
2022-08-22T03:05:18.077Z,18
2022-08-22T03:10:17.469Z,19
2022-08-22T03:15:17.713Z,20
2022-08-22T03:20:17.593Z,20
2022-08-22T03:25:17.642Z,18
2022-08-22T03:30:17.844Z,19
2022-08-22T03:35:17.636Z,19
2022-08-22T03:40:17.814Z,19
2022-08-22T03:45:17.685Z,18
2022-08-22T03:50:17.946Z,19
2022-08-22T03:55:17.643Z,20
2022-08-22T04:00:16.733Z,18
2022-08-22T04:05:16.685Z,19
2022-08-22T04:10:16.646Z,20
2022-08-22T04:15:17.306Z,18
2022-08-22T04:20:16.888Z,19
2022-08-22T04:25:16.813Z,18
2022-08-22T04:30:16.766Z,18
2022-08-22T04:35:16.659Z,19
2022-08-22T04:40:16.710Z,17
2022-08-22T04:45:16.974Z,17
2022-08-22T04:50:16.810Z,15
2022-08-22T04:55:16.703Z,13
2022-08-22T05:00:16.974Z,15
2022-08-22T05:05:16.775Z,13
2022-08-22T05:10:16.679Z,13
2022-08-22T05:15:18.898Z,12
2022-08-22T05:20:17.049Z,11
2022-08-22T05:25:17.062Z,10
2022-08-22T05:30:16.898Z,11
2022-08-22T05:35:16.840Z,12
2022-08-22T05:40:16.871Z,11
2022-08-22T05:45:17.135Z,12
2022-08-22T05:50:16.832Z,11
2022-08-22T05:55:17.078Z,12
2022-08-22T06:00:17.201Z,11
2022-08-22T06:05:16.996Z,11
2022-08-22T06:10:16.955Z,9
2022-08-22T06:15:21.104Z,9
2022-08-22T06:20:16.865Z,8
2022-08-22T06:25:16.903Z,8
2022-08-22T06:30:17.166Z,8
2022-08-22T06:35:17.093Z,8
2022-08-22T06:40:17.038Z,7
2022-08-22T06:45:17.144Z,8
2022-08-22T06:50:16.957Z,7
2022-08-22T06:55:16.988Z,7
2022-08-22T07:00:17.039Z,6
2022-08-22T07:05:17.065Z,8
2022-08-22T07:10:17.662Z,7
2022-08-22T07:15:18.224Z,7
2022-08-22T07:20:17.155Z,8
2022-08-22T07:25:17.050Z,7
2022-08-22T07:30:17.119Z,7
2022-08-22T07:35:17.314Z,9
2022-08-22T07:40:18.457Z,9
2022-08-22T07:45:17.206Z,9
2022-08-22T07:50:17.093Z,9
2022-08-22T07:55:17.195Z,7
2022-08-22T08:00:17.147Z,6
2022-08-22T08:05:17.110Z,5
2022-08-22T08:10:17.236Z,5
2022-08-22T08:15:17.392Z,4
2022-08-22T08:20:17.293Z,4
2022-08-22T08:25:17.294Z,3
2022-08-22T08:30:17.581Z,3
2022-08-22T08:35:17.247Z,5
2022-08-22T08:40:17.314Z,5
2022-08-22T08:45:17.319Z,5
2022-08-22T08:50:17.407Z,5
2022-08-22T08:55:21.949Z,5
2022-08-22T09:00:17.584Z,6
2022-08-22T09:05:17.437Z,6
2022-08-22T09:10:18.840Z,5
2022-08-22T09:15:17.536Z,5
2022-08-22T09:20:19.567Z,4
2022-08-22T09:25:17.759Z,5
2022-08-22T09:30:17.334Z,4
2022-08-22T09:35:17.351Z,3
2022-08-22T09:40:20.445Z,4
2022-08-22T09:45:17.471Z,5
2022-08-22T09:50:17.729Z,7
2022-08-22T09:55:18.483Z,6
2022-08-22T10:00:17.587Z,6
2022-08-22T10:05:40.258Z,5
2022-08-22T10:10:17.612Z,5
2022-08-22T10:15:17.495Z,2
2022-08-22T10:20:17.331Z,0
2022-08-22T10:25:18.694Z,5
2022-08-22T10:30:17.720Z,5
2022-08-22T10:35:17.808Z,4
2022-08-22T10:40:17.532Z,4
2022-08-22T10:45:23.897Z,0
2022-08-22T10:50:17.660Z,0
2022-08-22T10:55:17.455Z,0
2022-08-22T11:00:22.846Z,0
2022-08-22T11:05:17.571Z,0
2022-08-22T11:10:17.532Z,4
2022-08-22T11:15:28.283Z,4
2022-08-22T11:20:19.564Z,4
2022-08-22T11:25:23.775Z,4
2022-08-22T11:30:18.193Z,6
2022-08-22T11:35:17.535Z,6
2022-08-22T11:40:17.598Z,6
2022-08-22T11:45:17.962Z,6
2022-08-22T11:50:17.711Z,5
2022-08-22T11:55:18.154Z,4
2022-08-22T12:00:17.823Z,4
2022-08-22T12:05:24.267Z,4
2022-08-22T12:10:17.784Z,5
2022-08-22T12:15:17.782Z,4
2022-08-22T12:20:18.724Z,4
2022-08-22T12:25:17.674Z,4
2022-08-22T12:30:17.686Z,5
2022-08-22T12:35:17.648Z,5
2022-08-22T12:40:17.835Z,3
2022-08-22T12:45:17.779Z,4
2022-08-22T12:50:17.968Z,3
2022-08-22T12:55:17.771Z,4
2022-08-22T13:00:17.849Z,5
2022-08-22T13:05:19.872Z,5
2022-08-22T13:10:18.516Z,5
2022-08-22T13:15:18.071Z,5
2022-08-22T13:20:17.777Z,5
2022-08-22T13:25:25.382Z,5
2022-08-22T13:30:17.926Z,6
2022-08-22T13:35:17.824Z,8
2022-08-22T13:40:17.809Z,8
2022-08-22T13:45:17.977Z,8
2022-08-22T13:50:17.973Z,6
2022-08-22T13:55:17.895Z,7
2022-08-22T14:00:28.465Z,6
2022-08-22T14:05:17.879Z,6
2022-08-22T14:10:18.438Z,5
2022-08-22T14:15:17.919Z,5
2022-08-22T14:20:32.347Z,5
2022-08-22T14:25:18.761Z,7
2022-08-22T14:30:19.058Z,7
2022-08-22T14:35:21.699Z,5
2022-08-22T14:40:17.950Z,5
2022-08-22T14:45:18.265Z,5
2022-08-22T14:50:17.916Z,5
2022-08-22T14:55:17.947Z,5
